createdAt,value
2022-10-05T00:00:35.667Z,7.40
2022-10-05T00:01:35.698Z,7.60
2022-10-05T00:02:35.647Z,8.00
2022-10-05T00:03:35.637Z,7.30
2022-10-05T00:04:35.638Z,7.50
2022-10-05T00:05:35.674Z,6.90
2022-10-05T00:06:35.608Z,7.50
2022-10-05T00:07:35.599Z,7.90
2022-10-05T00:08:35.588Z,7.40
2022-10-05T00:09:35.560Z,7.80
2022-10-05T00:10:35.560Z,7.50
2022-10-05T00:11:35.549Z,7.00
2022-10-05T00:12:35.534Z,7.50
2022-10-05T00:13:35.516Z,8.30
2022-10-05T00:14:35.526Z,7.60
2022-10-05T00:15:35.497Z,7.30
2022-10-05T00:16:35.566Z,9.10
2022-10-05T00:17:35.469Z,7.70
2022-10-05T00:18:35.465Z,7.90
2022-10-05T00:19:35.447Z,9.10
2022-10-05T00:20:35.463Z,7.50
2022-10-05T00:21:35.460Z,8.60
2022-10-05T00:22:35.974Z,9.30
2022-10-05T00:23:35.418Z,7.10
2022-10-05T00:24:35.398Z,9.40
2022-10-05T00:25:35.398Z,8.10
2022-10-05T00:26:35.393Z,7.60
2022-10-05T00:27:35.389Z,7.40
2022-10-05T00:28:35.409Z,8.40
2022-10-05T00:29:35.343Z,8.30
2022-10-05T00:30:35.342Z,8.90
2022-10-05T00:31:35.373Z,8.20
2022-10-05T00:32:35.317Z,9.80
2022-10-05T00:33:35.314Z,7.90
2022-10-05T00:34:35.301Z,8.70
2022-10-05T00:35:35.285Z,7.90
2022-10-05T00:36:35.276Z,8.40
2022-10-05T00:37:35.371Z,8.20
2022-10-05T00:38:35.245Z,8.10
2022-10-05T00:39:35.238Z,9.60
2022-10-05T00:40:35.244Z,8.10
2022-10-05T00:41:35.206Z,8.40
2022-10-05T00:42:35.203Z,7.80
2022-10-05T00:43:35.203Z,7.60
2022-10-05T00:44:35.175Z,8.00
2022-10-05T00:45:42.254Z,8.10
2022-10-05T00:46:35.157Z,9.50
2022-10-05T00:47:35.138Z,8.10
2022-10-05T00:48:35.144Z,9.90
2022-10-05T00:49:35.116Z,8.00
2022-10-05T00:50:35.142Z,9.30
2022-10-05T00:51:35.103Z,8.00
2022-10-05T00:52:35.085Z,8.80
2022-10-05T00:53:35.097Z,9.10
2022-10-05T00:54:35.081Z,8.30
2022-10-05T00:55:35.060Z,8.00
2022-10-05T00:56:35.045Z,8.20
2022-10-05T00:57:35.028Z,7.90
2022-10-05T00:58:35.029Z,8.10
2022-10-05T00:59:35.051Z,7.80
2022-10-05T01:00:35.025Z,8.30
2022-10-05T01:01:35.067Z,8.00
2022-10-05T01:02:37.035Z,7.80
2022-10-05T01:03:34.979Z,8.80
2022-10-05T01:04:34.995Z,8.00
2022-10-05T01:05:34.948Z,7.80
2022-10-05T01:06:34.947Z,7.60
2022-10-05T01:07:34.919Z,9.20
2022-10-05T01:08:34.916Z,8.20
2022-10-05T01:09:34.928Z,9.30
2022-10-05T01:10:34.880Z,8.30
2022-10-05T01:11:34.902Z,8.10
2022-10-05T01:12:34.879Z,8.10
2022-10-05T01:13:34.867Z,7.90
2022-10-05T01:14:34.862Z,8.60
2022-10-05T01:15:34.829Z,8.80
2022-10-05T01:16:34.884Z,8.90
2022-10-05T01:17:34.806Z,8.10
2022-10-05T01:18:34.798Z,9.50
2022-10-05T01:19:34.794Z,8.20
2022-10-05T01:20:34.789Z,8.70
2022-10-05T01:21:34.762Z,8.90
2022-10-05T01:22:34.759Z,8.70
2022-10-05T01:23:34.757Z,9.80
2022-10-05T01:24:34.724Z,8.20
2022-10-05T01:25:34.736Z,8.20
2022-10-05T01:26:34.709Z,8.20
2022-10-05T01:27:34.714Z,8.30
2022-10-05T01:28:34.734Z,8.30
2022-10-05T01:29:34.696Z,8.20
2022-10-05T01:30:34.670Z,9.20
2022-10-05T01:31:34.757Z,9.60
2022-10-05T01:32:34.639Z,10.50
2022-10-05T01:33:34.643Z,8.30
2022-10-05T01:34:34.629Z,8.60
2022-10-05T01:35:34.608Z,8.80
2022-10-05T01:36:34.601Z,8.00
2022-10-05T01:37:34.611Z,8.50
2022-10-05T01:38:34.580Z,8.00
2022-10-05T01:39:34.609Z,9.10
2022-10-05T01:40:34.560Z,9.40
2022-10-05T01:41:34.599Z,8.20
2022-10-05T01:42:34.528Z,7.20
2022-10-05T01:43:34.520Z,8.50
2022-10-05T01:44:34.525Z,8.30
2022-10-05T01:45:34.545Z,7.90
2022-10-05T01:46:34.484Z,10.40
2022-10-05T01:47:34.477Z,8.30
2022-10-05T01:48:34.460Z,7.90
2022-10-05T01:49:34.478Z,7.60
2022-10-05T01:50:34.450Z,7.90
2022-10-05T01:51:34.435Z,7.50
2022-10-05T01:52:34.417Z,9.10
2022-10-05T01:53:34.423Z,7.70
2022-10-05T01:54:34.402Z,8.90
2022-10-05T01:55:34.402Z,8.90
2022-10-05T01:56:34.373Z,7.50
2022-10-05T01:57:34.386Z,8.90
2022-10-05T01:58:34.369Z,8.00
2022-10-05T01:59:34.348Z,8.10
2022-10-05T02:00:34.341Z,7.70
2022-10-05T02:01:34.343Z,7.10
2022-10-05T02:02:34.358Z,8.20
2022-10-05T02:03:34.313Z,7.90
2022-10-05T02:05:00.849Z,8.50
2022-10-05T02:05:35.293Z,8.50
2022-10-05T02:06:34.268Z,9.20
2022-10-05T02:07:34.260Z,7.30
2022-10-05T02:08:34.252Z,8.90
2022-10-05T02:09:34.247Z,7.30
2022-10-05T02:10:34.222Z,7.70
2022-10-05T02:11:34.213Z,7.20
2022-10-05T02:12:34.200Z,7.70
2022-10-05T02:13:34.216Z,8.80
2022-10-05T02:14:34.533Z,8.00
2022-10-05T02:15:34.215Z,7.90
2022-10-05T02:16:34.154Z,7.80
2022-10-05T02:17:34.158Z,7.60
2022-10-05T02:18:34.164Z,7.70
2022-10-05T02:19:34.131Z,8.20
2022-10-05T02:20:34.127Z,8.40
2022-10-05T02:21:34.125Z,8.00
2022-10-05T02:22:34.114Z,8.80
2022-10-05T02:23:34.085Z,7.20
2022-10-05T02:24:34.085Z,8.90
2022-10-05T02:25:34.107Z,7.90
2022-10-05T02:26:34.047Z,8.10
2022-10-05T02:27:34.043Z,8.30
2022-10-05T02:28:34.147Z,7.50
2022-10-05T02:29:34.044Z,9.30
2022-10-05T02:30:34.013Z,7.50
2022-10-05T02:31:34.063Z,8.20
2022-10-05T02:32:33.986Z,7.40
2022-10-05T02:33:34.006Z,7.60
2022-10-05T02:34:33.956Z,8.90
2022-10-05T02:35:33.972Z,7.00
2022-10-05T02:36:33.942Z,8.00
2022-10-05T02:37:33.929Z,7.80
2022-10-05T02:38:33.912Z,7.60
2022-10-05T02:39:33.919Z,7.60
2022-10-05T02:40:33.891Z,8.70
2022-10-05T02:41:33.885Z,7.30
2022-10-05T02:42:33.874Z,8.60
2022-10-05T02:43:33.862Z,7.50
2022-10-05T02:44:33.848Z,8.00
2022-10-05T02:45:33.917Z,7.70
2022-10-05T02:46:41.346Z,7.90
2022-10-05T02:47:33.819Z,7.30
2022-10-05T02:48:33.804Z,7.30
2022-10-05T02:49:33.813Z,9.40
2022-10-05T02:50:33.791Z,7.70
2022-10-05T02:51:33.774Z,8.50
2022-10-05T02:52:33.758Z,7.50
2022-10-05T02:53:33.757Z,8.20
2022-10-05T02:54:33.751Z,8.20
2022-10-05T02:55:33.744Z,8.00
2022-10-05T02:56:33.714Z,8.00
2022-10-05T02:57:33.717Z,7.70
2022-10-05T02:58:33.693Z,8.50
2022-10-05T02:59:33.723Z,8.00
2022-10-05T03:00:33.685Z,8.50
2022-10-05T03:01:33.762Z,8.10
2022-10-05T03:02:33.668Z,7.90
2022-10-05T03:03:33.647Z,9.50
2022-10-05T03:04:33.640Z,7.70
2022-10-05T03:05:33.633Z,8.60
2022-10-05T03:06:33.606Z,9.90
2022-10-05T03:07:33.612Z,7.90
2022-10-05T03:08:33.584Z,8.50
2022-10-05T03:09:33.579Z,8.60
2022-10-05T03:10:33.562Z,9.10
2022-10-05T03:11:33.567Z,7.90
2022-10-05T03:12:33.554Z,9.00
2022-10-05T03:13:33.547Z,8.60
2022-10-05T03:14:33.519Z,8.90
2022-10-05T03:15:33.525Z,8.90
2022-10-05T03:16:33.502Z,8.50
2022-10-05T03:17:33.694Z,8.60
2022-10-05T03:18:33.502Z,8.50
2022-10-05T03:19:33.468Z,8.40
2022-10-05T03:20:33.457Z,9.40
2022-10-05T03:21:33.448Z,9.30
2022-10-05T03:22:33.443Z,9.30
2022-10-05T03:23:33.425Z,8.70
2022-10-05T03:24:33.409Z,10.10
2022-10-05T03:25:33.407Z,9.80
2022-10-05T03:26:33.393Z,9.60
2022-10-05T03:27:33.400Z,10.20
2022-10-05T03:28:33.432Z,10.30
2022-10-05T03:29:33.369Z,9.00
2022-10-05T03:30:33.348Z,9.40
2022-10-05T03:31:33.397Z,9.40
2022-10-05T03:32:33.323Z,8.30
2022-10-05T03:33:33.358Z,8.40
2022-10-05T03:34:33.329Z,8.40
2022-10-05T03:35:33.297Z,8.20
2022-10-05T03:36:33.288Z,8.40
2022-10-05T03:37:33.317Z,8.60
2022-10-05T03:38:33.277Z,8.90
2022-10-05T03:39:33.258Z,9.50
2022-10-05T03:40:33.251Z,8.10
2022-10-05T03:41:33.231Z,8.90
2022-10-05T03:42:33.230Z,8.30
2022-10-05T03:43:34.059Z,8.20
2022-10-05T03:44:33.193Z,9.30
2022-10-05T03:45:33.190Z,8.40
2022-10-05T03:46:33.236Z,8.90
2022-10-05T03:47:33.163Z,8.70
2022-10-05T03:48:33.159Z,11.40
2022-10-05T03:49:33.179Z,8.20
2022-10-05T03:50:33.130Z,8.60
2022-10-05T03:51:33.134Z,10.00
2022-10-05T03:52:33.112Z,9.30
2022-10-05T03:53:33.101Z,8.30
2022-10-05T03:54:33.093Z,8.90
2022-10-05T03:55:33.077Z,9.60
2022-10-05T03:56:33.083Z,8.70
2022-10-05T03:57:33.072Z,8.80
2022-10-05T03:58:33.050Z,10.40
2022-10-05T03:59:33.043Z,8.60
2022-10-05T04:00:33.029Z,8.40
2022-10-05T04:01:33.062Z,9.30
2022-10-05T04:02:33.078Z,9.00
2022-10-05T04:03:33.006Z,9.30
2022-10-05T04:04:32.974Z,9.50
2022-10-05T04:05:32.995Z,10.30
2022-10-05T04:06:32.966Z,10.60
2022-10-05T04:07:32.960Z,9.80
2022-10-05T04:08:32.932Z,9.80
2022-10-05T04:09:32.925Z,9.10
2022-10-05T04:10:32.910Z,8.50
2022-10-05T04:11:32.905Z,9.40
2022-10-05T04:12:32.907Z,9.10
2022-10-05T04:13:32.885Z,10.00
2022-10-05T04:14:32.892Z,8.30
2022-10-05T04:15:32.929Z,8.60
2022-10-05T04:16:32.843Z,8.60
2022-10-05T04:17:32.865Z,9.10
2022-10-05T04:18:32.843Z,8.20
2022-10-05T04:19:32.817Z,9.60
2022-10-05T04:20:32.812Z,8.40
2022-10-05T04:21:32.840Z,8.80
2022-10-05T04:22:32.778Z,8.40
2022-10-05T04:23:32.792Z,8.40
2022-10-05T04:24:32.781Z,8.70
2022-10-05T04:25:32.773Z,8.70
2022-10-05T04:26:32.768Z,11.70
2022-10-05T04:27:32.737Z,9.00
2022-10-05T04:28:32.816Z,9.30
2022-10-05T04:29:32.710Z,8.30
2022-10-05T04:30:32.704Z,9.90
2022-10-05T04:31:32.790Z,9.00
2022-10-05T04:32:32.676Z,8.30
2022-10-05T04:33:32.663Z,8.40
2022-10-05T04:34:32.649Z,8.30
2022-10-05T04:35:32.642Z,9.60
2022-10-05T04:36:32.642Z,8.20
2022-10-05T04:37:32.654Z,9.00
2022-10-05T04:38:32.604Z,8.40
2022-10-05T04:39:32.609Z,8.40
2022-10-05T04:40:32.583Z,9.40
2022-10-05T04:41:32.588Z,8.00
2022-10-05T04:42:32.561Z,8.10
2022-10-05T04:43:32.555Z,9.40
2022-10-05T04:44:32.550Z,9.30
2022-10-05T04:45:32.533Z,8.80
2022-10-05T04:46:32.584Z,10.00
2022-10-05T04:47:40.022Z,8.60
2022-10-05T04:48:32.509Z,8.90
2022-10-05T04:49:32.493Z,8.60
2022-10-05T04:50:32.472Z,9.10
2022-10-05T04:51:32.468Z,9.20
2022-10-05T04:52:32.466Z,9.80
2022-10-05T04:53:32.466Z,9.50
2022-10-05T04:54:32.429Z,8.60
2022-10-05T04:55:32.422Z,9.50
2022-10-05T04:56:32.406Z,8.90
2022-10-05T04:57:32.418Z,9.60
2022-10-05T04:58:32.386Z,10.20
2022-10-05T04:59:32.379Z,8.40
2022-10-05T05:00:32.417Z,9.20
2022-10-05T05:01:32.363Z,8.30
2022-10-05T05:02:32.428Z,8.70
2022-10-05T05:03:32.411Z,9.70
2022-10-05T05:04:32.412Z,9.80
2022-10-05T05:05:32.394Z,9.20
2022-10-05T05:06:32.967Z,9.20
2022-10-05T05:07:32.826Z,8.70
2022-10-05T05:08:32.365Z,9.50
2022-10-05T05:09:32.360Z,8.70
2022-10-05T05:10:32.281Z,9.80
2022-10-05T05:11:32.310Z,9.30
2022-10-05T05:12:37.730Z,8.30
2022-10-05T05:13:32.298Z,9.20
2022-10-05T05:14:33.416Z,9.90
2022-10-05T05:15:32.195Z,9.80
2022-10-05T05:16:32.277Z,9.10
2022-10-05T05:17:32.203Z,8.80
2022-10-05T05:18:32.197Z,9.90
2022-10-05T05:19:32.160Z,10.50
2022-10-05T05:20:32.147Z,8.90
2022-10-05T05:21:32.128Z,9.10
2022-10-05T05:22:32.122Z,9.00
2022-10-05T05:23:32.133Z,8.70
2022-10-05T05:24:32.100Z,9.90
2022-10-05T05:25:32.121Z,10.50
2022-10-05T05:26:36.762Z,8.80
2022-10-05T05:27:33.064Z,8.70
2022-10-05T05:28:32.120Z,9.40
2022-10-05T05:29:32.051Z,9.40
2022-10-05T05:30:32.034Z,9.60
2022-10-05T05:31:32.067Z,9.20
2022-10-05T05:32:32.012Z,9.50
2022-10-05T05:33:31.998Z,9.00
2022-10-05T05:34:32.008Z,8.80
2022-10-05T05:35:31.974Z,8.90
2022-10-05T05:36:31.982Z,8.80
2022-10-05T05:37:31.952Z,9.20
2022-10-05T05:38:31.948Z,10.50
2022-10-05T05:39:31.940Z,9.10
2022-10-05T05:40:31.947Z,8.30
2022-10-05T05:41:31.930Z,11.70
2022-10-05T05:42:31.915Z,9.10
2022-10-05T05:43:31.889Z,9.10
2022-10-05T05:44:36.493Z,8.60
2022-10-05T05:45:33.868Z,8.00
2022-10-05T05:46:58.271Z,9.10
2022-10-05T05:47:32.988Z,8.40
2022-10-05T05:48:31.852Z,10.30
2022-10-05T05:49:31.831Z,8.60
2022-10-05T05:50:31.812Z,7.80
2022-10-05T05:51:31.799Z,10.20
2022-10-05T05:52:31.813Z,9.70
2022-10-05T05:53:31.775Z,9.00
2022-10-05T05:54:31.768Z,9.60
2022-10-05T05:55:31.755Z,8.30
2022-10-05T05:56:31.748Z,9.70
2022-10-05T05:57:31.762Z,8.40
2022-10-05T05:58:31.737Z,8.30
2022-10-05T05:59:31.733Z,9.40
2022-10-05T06:00:31.702Z,8.50
2022-10-05T06:01:33.646Z,8.00
2022-10-05T06:02:31.831Z,9.00
2022-10-05T06:03:31.703Z,8.30
2022-10-05T06:04:31.695Z,8.80
2022-10-05T06:05:31.665Z,8.70
2022-10-05T06:06:31.647Z,9.40
2022-10-05T06:07:31.621Z,7.70
2022-10-05T06:08:31.638Z,8.40
2022-10-05T06:09:31.617Z,8.50
2022-10-05T06:10:31.592Z,8.00
2022-10-05T06:11:31.590Z,9.60
2022-10-05T06:12:31.586Z,9.20
2022-10-05T06:13:31.576Z,8.80
2022-10-05T06:14:31.565Z,8.50
2022-10-05T06:15:31.536Z,8.00
2022-10-05T06:16:31.610Z,7.70
2022-10-05T06:17:31.520Z,8.50
2022-10-05T06:18:31.504Z,8.70
2022-10-05T06:19:31.507Z,9.10
2022-10-05T06:20:31.494Z,8.60
2022-10-05T06:21:31.466Z,8.30
2022-10-05T06:22:31.470Z,7.50
2022-10-05T06:23:31.473Z,8.20
2022-10-05T06:24:31.439Z,11.50
2022-10-05T06:25:31.438Z,8.50
2022-10-05T06:26:31.421Z,8.70
2022-10-05T06:27:31.413Z,8.10
2022-10-05T06:28:31.496Z,8.10
2022-10-05T06:29:31.415Z,8.60
2022-10-05T06:30:31.376Z,8.40
2022-10-05T06:31:31.396Z,9.00
2022-10-05T06:32:31.365Z,8.80
2022-10-05T06:33:31.335Z,7.90
2022-10-05T06:34:31.329Z,7.70
2022-10-05T06:35:31.316Z,8.40
2022-10-05T06:36:31.308Z,8.90
2022-10-05T06:37:31.303Z,10.40
2022-10-05T06:38:31.307Z,8.50
2022-10-05T06:39:31.270Z,9.00
2022-10-05T06:40:31.264Z,8.70
2022-10-05T06:41:32.107Z,8.30
2022-10-05T06:42:31.261Z,8.20
2022-10-05T06:43:31.230Z,7.60
2022-10-05T06:44:31.232Z,10.50
2022-10-05T06:45:31.434Z,7.90
2022-10-05T06:46:31.199Z,8.70
2022-10-05T06:47:31.182Z,10.50
2022-10-05T06:48:38.679Z,7.90
2022-10-05T06:49:31.186Z,8.10
2022-10-05T06:50:31.156Z,7.30
2022-10-05T06:51:31.141Z,10.10
2022-10-05T06:52:31.136Z,8.00
2022-10-05T06:53:31.130Z,8.40
2022-10-05T06:54:31.126Z,8.10
2022-10-05T06:55:31.110Z,10.30
2022-10-05T06:56:31.092Z,10.70
2022-10-05T06:57:31.077Z,8.10
2022-10-05T06:58:31.070Z,8.00
2022-10-05T06:59:31.059Z,7.20
2022-10-05T07:00:31.065Z,8.60
2022-10-05T07:01:31.099Z,9.00
2022-10-05T07:02:31.071Z,8.20
2022-10-05T07:03:31.023Z,7.30
2022-10-05T07:04:34.656Z,8.50
2022-10-05T07:05:31.994Z,8.50
2022-10-05T07:06:30.983Z,9.00
2022-10-05T07:07:30.967Z,7.60
2022-10-05T07:08:30.975Z,8.30
2022-10-05T07:09:30.960Z,7.20
2022-10-05T07:10:30.940Z,7.80
2022-10-05T07:11:30.939Z,8.30
2022-10-05T07:12:30.930Z,8.50
2022-10-05T07:13:30.901Z,8.40
2022-10-05T07:14:30.896Z,8.80
2022-10-05T07:15:30.880Z,7.30
2022-10-05T07:16:30.910Z,7.30
2022-10-05T07:17:30.890Z,7.30
2022-10-05T07:18:30.859Z,8.20
2022-10-05T07:19:30.847Z,7.50
2022-10-05T07:20:30.842Z,7.40
2022-10-05T07:21:30.815Z,8.40
2022-10-05T07:22:33.434Z,9.30
2022-10-05T07:23:30.809Z,9.10
2022-10-05T07:24:30.785Z,7.80
2022-10-05T07:25:30.802Z,8.10
2022-10-05T07:26:30.762Z,8.40
2022-10-05T07:27:30.747Z,7.90
2022-10-05T07:28:30.822Z,7.30
2022-10-05T07:29:30.724Z,8.00
2022-10-05T07:30:30.815Z,8.40
2022-10-05T07:31:30.705Z,9.70
2022-10-05T07:32:30.710Z,8.60
2022-10-05T07:33:30.699Z,7.60
2022-10-05T07:34:30.705Z,7.10
2022-10-05T07:35:30.677Z,7.70
2022-10-05T07:36:30.653Z,8.10
2022-10-05T07:37:30.637Z,8.70
2022-10-05T07:38:30.648Z,8.00
2022-10-05T07:39:55.267Z,7.00
2022-10-05T07:40:31.619Z,7.70
2022-10-05T07:41:30.603Z,9.50
2022-10-05T07:42:30.584Z,7.60
2022-10-05T07:43:40.291Z,8.20
2022-10-05T07:44:31.577Z,7.30
2022-10-05T07:45:30.621Z,7.20
2022-10-05T07:46:30.572Z,7.80
2022-10-05T07:47:30.541Z,8.00
2022-10-05T07:48:30.542Z,7.70
2022-10-05T07:49:30.522Z,8.40
2022-10-05T07:50:30.497Z,8.00
2022-10-05T07:51:30.501Z,7.70
2022-10-05T07:52:34.481Z,7.30
2022-10-05T07:53:30.472Z,7.60
2022-10-05T07:54:30.463Z,7.70
2022-10-05T07:55:30.434Z,7.80
2022-10-05T07:56:30.436Z,7.50
2022-10-05T07:57:30.413Z,7.10
2022-10-05T07:58:30.419Z,8.30
2022-10-05T07:59:30.402Z,7.80
2022-10-05T08:00:30.386Z,8.90
2022-10-05T08:01:30.412Z,7.20
2022-10-05T08:02:30.473Z,7.20
2022-10-05T08:03:30.354Z,7.50
2022-10-05T08:04:30.350Z,7.50
2022-10-05T08:05:30.345Z,10.00
2022-10-05T08:06:30.332Z,7.10
2022-10-05T08:07:30.359Z,8.40
2022-10-05T08:08:30.302Z,6.90
2022-10-05T08:09:30.291Z,6.80
2022-10-05T08:10:30.394Z,6.50
2022-10-05T08:11:30.258Z,6.80
2022-10-05T08:12:30.253Z,6.50
2022-10-05T08:13:30.266Z,6.80
2022-10-05T08:14:30.229Z,7.20
2022-10-05T08:15:30.214Z,6.50
2022-10-05T08:16:30.272Z,7.10
2022-10-05T08:17:30.245Z,7.00
2022-10-05T08:18:30.188Z,7.70
2022-10-05T08:19:30.180Z,6.10
2022-10-05T08:20:30.169Z,7.50
2022-10-05T08:21:30.202Z,6.60
2022-10-05T08:22:30.144Z,5.80
2022-10-05T08:23:30.129Z,5.80
2022-10-05T08:24:30.162Z,6.70
2022-10-05T08:25:30.103Z,7.10
2022-10-05T08:26:30.122Z,6.90
2022-10-05T08:27:30.082Z,6.30
2022-10-05T08:28:30.182Z,6.70
2022-10-05T08:29:30.061Z,5.80
2022-10-05T08:30:30.068Z,6.40
2022-10-05T08:31:30.146Z,5.80
2022-10-05T08:32:30.046Z,5.90
2022-10-05T08:33:30.018Z,5.50
2022-10-05T08:34:30.027Z,6.30
2022-10-05T08:35:29.998Z,5.90
2022-10-05T08:36:29.991Z,5.90
2022-10-05T08:37:30.106Z,5.30
2022-10-05T08:38:29.980Z,5.80
2022-10-05T08:39:29.973Z,6.40
2022-10-05T08:40:29.947Z,6.30
2022-10-05T08:41:29.928Z,5.50
2022-10-05T08:42:29.933Z,5.40
2022-10-05T08:43:35.034Z,5.60
2022-10-05T08:44:30.898Z,6.30
2022-10-05T08:45:29.883Z,5.90
2022-10-05T08:46:29.954Z,5.70
2022-10-05T08:47:29.879Z,5.60
2022-10-05T08:48:29.869Z,5.90
2022-10-05T08:49:37.346Z,5.70
2022-10-05T08:50:29.837Z,5.40
2022-10-05T08:51:29.817Z,5.20
2022-10-05T08:52:29.813Z,5.60
2022-10-05T08:53:29.814Z,5.20
2022-10-05T08:54:29.800Z,4.80
2022-10-05T08:55:29.774Z,6.40
2022-10-05T08:56:29.796Z,5.40
2022-10-05T08:57:29.753Z,5.30
2022-10-05T08:58:29.747Z,5.30
2022-10-05T08:59:29.761Z,5.00
2022-10-05T09:00:29.726Z,4.80
2022-10-05T09:01:29.765Z,5.50
2022-10-05T09:02:29.795Z,4.80
2022-10-05T09:03:34.185Z,5.10
2022-10-05T09:04:29.685Z,5.50
2022-10-05T09:05:29.682Z,5.70
2022-10-05T09:06:29.659Z,5.30
2022-10-05T09:07:29.641Z,4.90
2022-10-05T09:08:29.657Z,4.90
2022-10-05T09:09:29.638Z,6.30
2022-10-05T09:10:29.631Z,5.60
2022-10-05T09:11:29.598Z,4.90
2022-10-05T09:12:29.607Z,5.90
2022-10-05T09:13:29.582Z,6.70
2022-10-05T09:14:29.585Z,5.20
2022-10-05T09:15:29.566Z,5.20
2022-10-05T09:16:29.552Z,4.80
2022-10-05T09:17:29.558Z,5.20
2022-10-05T09:18:29.531Z,5.30
2022-10-05T09:19:29.530Z,5.30
2022-10-05T09:20:29.531Z,4.60
2022-10-05T09:21:29.524Z,5.30
2022-10-05T09:22:29.486Z,6.40
2022-10-05T09:23:29.485Z,6.10
2022-10-05T09:24:29.466Z,5.80
2022-10-05T09:25:29.470Z,5.80
2022-10-05T09:26:29.456Z,5.00
2022-10-05T09:27:29.447Z,4.60
2022-10-05T09:28:29.506Z,6.30
2022-10-05T09:29:29.405Z,4.80
2022-10-05T09:30:29.405Z,5.30
2022-10-05T09:31:29.476Z,5.00
2022-10-05T09:32:29.368Z,4.70
2022-10-05T09:33:29.363Z,4.80
2022-10-05T09:34:29.345Z,8.10
2022-10-05T09:35:29.340Z,4.70
2022-10-05T09:36:29.343Z,5.20
2022-10-05T09:37:29.334Z,6.50
2022-10-05T09:38:29.304Z,6.60
2022-10-05T09:39:29.298Z,4.20
2022-10-05T09:40:29.286Z,5.20
2022-10-05T09:41:29.305Z,4.40
2022-10-05T09:42:29.287Z,5.20
2022-10-05T09:43:29.257Z,4.70
2022-10-05T09:44:29.268Z,4.70
2022-10-05T09:45:29.230Z,4.40
2022-10-05T09:46:29.268Z,4.30
2022-10-05T09:47:29.212Z,4.50
2022-10-05T09:48:29.208Z,4.40
2022-10-05T09:49:29.208Z,5.50
2022-10-05T09:50:29.173Z,4.60
2022-10-05T09:51:29.167Z,4.60
2022-10-05T09:52:29.151Z,4.40
2022-10-05T09:53:29.157Z,5.40
2022-10-05T09:54:29.131Z,4.80
2022-10-05T09:55:29.123Z,4.60
2022-10-05T09:57:29.141Z,5.10
2022-10-05T09:58:29.103Z,5.30
2022-10-05T09:59:29.096Z,4.40
2022-10-05T10:00:29.089Z,4.30
2022-10-05T10:01:33.728Z,4.20
2022-10-05T10:02:30.207Z,4.10
2022-10-05T10:03:29.113Z,4.70
2022-10-05T10:04:29.041Z,4.40
2022-10-05T10:05:29.029Z,4.20
2022-10-05T10:06:29.015Z,4.30
2022-10-05T10:07:29.013Z,3.80
2022-10-05T10:08:28.980Z,4.10
2022-10-05T10:09:28.981Z,4.80
2022-10-05T10:10:28.967Z,4.10
2022-10-05T10:11:28.964Z,3.80
2022-10-05T10:12:28.929Z,4.50
2022-10-05T10:13:28.971Z,4.30
2022-10-05T10:14:28.913Z,5.90
2022-10-05T10:15:28.917Z,4.70
2022-10-05T10:16:28.922Z,4.80
2022-10-05T10:17:28.896Z,4.60
2022-10-05T10:18:28.877Z,4.70
2022-10-05T10:19:28.858Z,4.20
2022-10-05T10:20:28.854Z,4.50
2022-10-05T10:21:28.856Z,3.80
2022-10-05T10:22:28.823Z,3.80
2022-10-05T10:23:28.813Z,3.90
2022-10-05T10:24:28.798Z,4.00
2022-10-05T10:25:28.804Z,5.30
2022-10-05T10:26:28.784Z,4.00
2022-10-05T10:27:28.771Z,3.90
2022-10-05T10:28:28.822Z,4.10
2022-10-05T10:29:28.783Z,4.20
2022-10-05T10:30:30.182Z,4.50
2022-10-05T10:31:28.792Z,4.00
2022-10-05T10:32:28.713Z,4.50
2022-10-05T10:33:28.708Z,3.90
2022-10-05T10:34:28.713Z,3.60
2022-10-05T10:36:28.695Z,3.70
2022-10-05T10:37:28.667Z,3.90
2022-10-05T10:38:28.665Z,3.90
2022-10-05T10:39:28.642Z,4.70
2022-10-05T10:40:28.651Z,3.20
2022-10-05T10:41:28.643Z,3.40
2022-10-05T10:42:28.616Z,3.10
2022-10-05T10:43:28.625Z,3.80
2022-10-05T10:44:28.582Z,4.00
2022-10-05T10:45:28.646Z,3.60
2022-10-05T10:46:28.656Z,3.60
2022-10-05T10:47:28.581Z,3.50
2022-10-05T10:48:28.563Z,3.70
2022-10-05T10:49:28.555Z,3.50
2022-10-05T10:50:36.048Z,4.10
2022-10-05T10:51:28.510Z,3.60
2022-10-05T10:52:28.499Z,3.50
2022-10-05T10:53:28.501Z,3.50
2022-10-05T10:54:28.473Z,3.30
2022-10-05T10:55:28.477Z,3.80
2022-10-05T10:56:28.450Z,3.80
2022-10-05T10:57:28.447Z,3.80
2022-10-05T10:58:28.431Z,3.60
2022-10-05T10:59:30.833Z,3.60
2022-10-05T11:00:28.424Z,3.60
2022-10-05T11:01:28.507Z,4.30
2022-10-05T11:02:28.475Z,3.40
2022-10-05T11:03:28.384Z,4.60
2022-10-05T11:04:28.370Z,3.50
2022-10-05T11:05:28.359Z,3.60
2022-10-05T11:06:28.345Z,3.70
2022-10-05T11:07:28.349Z,3.30
2022-10-05T11:08:29.230Z,3.60
2022-10-05T11:09:28.328Z,4.50
2022-10-05T11:10:28.311Z,3.60
2022-10-05T11:11:28.310Z,3.50
2022-10-05T11:12:33.529Z,3.70
2022-10-05T22:45:35.666Z,4.80
2022-10-05T22:46:35.546Z,3.30
2022-10-05T22:47:35.543Z,3.60
2022-10-05T22:48:35.524Z,2.30
2022-10-05T22:49:35.520Z,4.80
2022-10-05T22:50:35.501Z,2.10
2022-10-05T22:51:35.505Z,1.70
2022-10-05T22:52:35.481Z,3.40
2022-10-05T22:53:35.474Z,3.40
2022-10-05T22:54:37.414Z,4.40
2022-10-05T22:55:35.454Z,2.60
2022-10-05T22:56:35.442Z,2.40
2022-10-05T22:57:35.432Z,2.70
2022-10-05T22:58:35.414Z,3.40
2022-10-05T22:59:35.409Z,2.80
2022-10-05T23:00:57.025Z,2.20
2022-10-05T23:01:35.460Z,3.80
2022-10-05T23:02:35.435Z,2.70
2022-10-05T23:03:35.367Z,2.20
2022-10-05T23:04:35.349Z,2.60
2022-10-05T23:05:35.344Z,3.40
2022-10-05T23:06:35.343Z,2.20
2022-10-05T23:07:35.319Z,2.30
2022-10-05T23:08:35.316Z,2.00
2022-10-05T23:09:35.298Z,4.60
2022-10-05T23:10:35.290Z,2.70
2022-10-05T23:11:35.288Z,4.30
2022-10-05T23:12:35.260Z,2.50
2022-10-05T23:13:35.254Z,2.80
2022-10-05T23:14:35.244Z,3.50
2022-10-05T23:15:35.233Z,2.30
2022-10-05T23:16:35.327Z,2.40
2022-10-05T23:17:35.233Z,4.00
2022-10-05T23:18:35.196Z,3.60
2022-10-05T23:19:35.190Z,2.20
2022-10-05T23:20:35.186Z,3.10
2022-10-05T23:21:35.183Z,3.10
2022-10-05T23:22:35.154Z,2.60
2022-10-05T23:23:35.146Z,3.20
2022-10-05T23:24:35.139Z,3.40
2022-10-05T23:25:35.132Z,3.10
2022-10-05T23:26:35.121Z,3.40
2022-10-05T23:27:35.104Z,3.40
2022-10-05T23:28:35.206Z,3.40
2022-10-05T23:29:35.086Z,3.20
2022-10-05T23:30:35.083Z,2.70
2022-10-05T23:31:35.069Z,3.10
2022-10-05T23:32:35.042Z,4.10
2022-10-05T23:33:35.057Z,2.70
2022-10-05T23:34:35.021Z,3.90
2022-10-05T23:35:35.036Z,3.50
2022-10-05T23:36:35.027Z,2.20
2022-10-05T23:37:34.993Z,1.40
2022-10-05T23:38:34.980Z,1.10
2022-10-05T23:39:34.970Z,2.30
2022-10-05T23:40:34.967Z,2.70
2022-10-05T23:41:34.960Z,1.80
2022-10-05T23:42:34.950Z,1.80
2022-10-05T23:43:34.932Z,1.30
2022-10-05T23:44:34.928Z,1.90
2022-10-05T23:45:35.024Z,2.20
2022-10-05T23:46:34.888Z,1.90
2022-10-05T23:47:34.881Z,1.60
2022-10-05T23:48:34.878Z,1.00
2022-10-05T23:49:34.889Z,1.40
2022-10-05T23:50:34.850Z,2.50
2022-10-05T23:51:34.849Z,0.80
2022-10-05T23:52:34.825Z,1.90
2022-10-05T23:53:34.826Z,1.30
2022-10-05T23:54:34.889Z,1.90
2022-10-05T23:55:34.795Z,0.80
2022-10-05T23:56:34.791Z,1.30
2022-10-05T23:57:34.792Z,2.40
2022-10-05T23:58:34.760Z,0.70
2022-10-05T23:59:34.759Z,1.70
